Time;durP1;ratioP1;P1;durP2;ratioP2;P2;SDS_P1;SDS_P2;PMS_P1;PMS_P2;Temp;Humidity;BMP_temperature;BMP_pressure;BME280_temperature;BME280_humidity;BME280_pressure;Samples;Min_cycle;Max_cycle;Signal;HPM_P1;HPM_P2
2021/06/20 00:00:27;;;;;;;8.80;3.85;;;614.90;1587.20;;;;;;5093659;28;20036;-64
2021/06/20 00:02:54;;;;;;;6.47;3.60;;;614.90;1587.20;;;;;;5093325;28;20032;-64
2021/06/20 00:05:23;;;;;;;6.18;3.35;;;614.90;1587.20;;;;;;5096566;28;20024;-63
2021/06/20 00:07:49;;;;;;;7.00;3.17;;;614.90;1561.60;;;;;;5097512;28;20032;-64
2021/06/20 00:10:20;;;;;;;7.85;3.33;;;614.90;1561.60;;;;;;5097112;28;20378;-64
2021/06/20 00:12:46;;;;;;;4.82;3.40;;;614.90;1561.60;;;;;;5097297;28;20454;-75
2021/06/20 00:15:15;;;;;;;3.75;2.95;;;614.90;1561.60;;;;;;5097185;28;20506;-64
2021/06/20 00:17:41;;;;;;;7.43;3.10;;;614.90;1561.60;;;;;;5097333;28;20036;-65
2021/06/20 00:20:08;;;;;;;4.88;3.40;;;614.90;1561.60;;;;;;5097073;28;20020;-64
2021/06/20 00:22:35;;;;;;;3.55;2.88;;;614.90;1561.60;;;;;;5096917;28;20143;-64
2021/06/20 00:25:01;;;;;;;7.82;3.88;;;614.90;1561.60;;;;;;5097071;28;20020;-65
2021/06/20 00:27:27;;;;;;;6.28;3.17;;;614.90;1561.60;;;;;;5096990;28;20028;-64
2021/06/20 00:29:53;;;;;;;7.28;3.20;;;614.90;1561.60;;;;;;5097115;28;20066;-64
2021/06/20 00:32:18;;;;;;;7.57;3.05;;;614.80;1561.60;;;;;;5097103;28;20028;-64
2021/06/20 00:34:44;;;;;;;6.95;3.58;;;614.80;1561.60;;;;;;5097066;28;20043;-65
2021/06/20 00:37:10;;;;;;;6.63;3.08;;;614.80;1561.60;;;;;;5096566;28;20469;-64
2021/06/20 00:39:36;;;;;;;8.23;3.22;;;614.70;1561.60;;;;;;5096916;28;20020;-65
2021/06/20 00:42:02;;;;;;;4.70;3.10;;;614.70;1561.60;;;;;;5096583;28;20032;-65
2021/06/20 00:44:27;;;;;;;8.20;3.38;;;614.70;1561.60;;;;;;5096650;28;20027;-64
2021/06/20 00:46:53;;;;;;;6.13;3.08;;;614.70;1561.60;;;;;;5096600;28;20080;-65
2021/06/20 00:49:19;;;;;;;4.70;3.40;;;614.70;1561.60;;;;;;5096606;28;20457;-64
2021/06/20 00:51:45;;;;;;;4.30;2.63;;;614.60;1561.60;;;;;;5096490;28;20077;-65
2021/06/20 00:54:11;;;;;;;4.32;2.55;;;614.60;1561.60;;;;;;5096627;28;20020;-65
2021/06/20 00:56:37;;;;;;;8.35;3.75;;;614.60;1561.60;;;;;;5096439;28;20016;-65
2021/06/20 00:59:04;;;;;;;6.72;3.03;;;614.60;1561.60;;;;;;5096472;28;20054;-64
2021/06/20 01:01:35;;;;;;;7.78;3.38;;;614.50;1561.60;;;;;;5095672;28;20036;-64
2021/06/20 01:04:01;;;;;;;3.92;2.90;;;614.50;1561.60;;;;;;5096146;28;20024;-64
2021/06/20 01:06:28;;;;;;;3.35;3.03;;;614.40;1561.60;;;;;;5096180;28;20376;-65
2021/06/20 01:08:55;;;;;;;4.90;2.90;;;614.40;1561.60;;;;;;5095011;28;20027;-64
2021/06/20 01:11:21;;;;;;;4.78;3.22;;;614.40;1561.60;;;;;;5095341;28;20373;-63
2021/06/20 01:13:48;;;;;;;4.95;3.03;;;614.40;1587.20;;;;;;5094061;28;20482;-64
2021/06/20 01:16:14;;;;;;;6.63;3.33;;;589.70;1587.20;;;;;;5095258;28;20028;-65
2021/06/20 01:18:40;;;;;;;4.05;3.13;;;589.70;1587.20;;;;;;5096246;28;20028;-65
2021/06/20 01:21:08;;;;;;;7.00;3.50;;;589.60;1612.80;;;;;;5095711;28;20044;-65
2021/06/20 01:23:34;;;;;;;6.07;3.45;;;589.60;1612.80;;;;;;5095923;28;20043;-65
2021/06/20 01:26:01;;;;;;;4.22;3.22;;;589.50;1612.80;;;;;;5095871;28;20084;-65
2021/06/20 01:28:28;;;;;;;3.55;3.17;;;589.50;1612.80;;;;;;5095845;28;20085;-65
2021/06/20 01:30:58;;;;;;;5.72;2.90;;;589.40;1612.80;;;;;;5095994;28;20030;-65
2021/06/20 01:33:24;;;;;;;5.35;3.15;;;589.30;1612.80;;;;;;5095716;28;20031;-65
2021/06/20 01:35:50;;;;;;;7.70;3.45;;;589.30;1638.40;;;;;;5095724;28;20082;-64
2021/06/20 01:38:16;;;;;;;4.85;3.28;;;589.30;1638.40;;;;;;5095815;28;20020;-64
2021/06/20 01:40:41;;;;;;;10.38;3.88;;;589.20;1638.40;;;;;;5095695;28;20465;-65
2021/06/20 01:43:08;;;;;;;7.45;3.40;;;589.20;1638.40;;;;;;5095716;28;20427;-65
2021/06/20 01:45:36;;;;;;;5.95;3.35;;;589.20;1638.40;;;;;;5095684;28;20081;-65
2021/06/20 01:48:03;;;;;;;7.68;3.60;;;589.20;1664.00;;;;;;5095669;28;20034;-65
2021/06/20 01:50:30;;;;;;;6.35;3.72;;;589.20;1664.00;;;;;;5095484;28;20069;-64
2021/06/20 01:53:14;;;;;;;5.35;3.33;;;589.20;1638.40;;;;;;5095374;28;20020;-65
2021/06/20 01:55:42;;;;;;;6.95;3.95;;;589.20;1664.00;;;;;;5095225;28;20081;-64
2021/06/20 01:58:10;;;;;;;6.18;4.10;;;589.10;1689.60;;;;;;5095190;28;20025;-65
2021/06/20 02:00:38;;;;;;;6.53;3.65;;;589.10;1715.20;;;;;;5095376;28;20359;-65
2021/06/20 02:03:11;;;;;;;5.25;4.05;;;589.00;1715.20;;;;;;5095244;28;20058;-64
2021/06/20 02:05:38;;;;;;;16.70;5.10;;;588.90;1715.20;;;;;;5094865;28;20020;-65
2021/06/20 02:08:04;;;;;;;5.78;4.80;;;588.90;1715.20;;;;;;5094876;28;20500;-65
2021/06/20 02:10:30;;;;;;;10.63;9.02;;;588.90;1715.20;;;;;;5094950;28;20028;-62
2021/06/20 02:12:56;;;;;;;8.77;5.97;;;588.90;1715.20;;;;;;5095037;28;20035;-63
2021/06/20 02:15:23;;;;;;;4.97;4.15;;;588.90;1715.20;;;;;;5095049;28;20023;-63
2021/06/20 02:17:49;;;;;;;6.80;4.05;;;588.90;1715.20;;;;;;5094815;28;20493;-62
2021/06/20 02:20:20;;;;;;;6.38;4.10;;;588.90;1715.20;;;;;;5094899;28;20032;-65
2021/06/20 02:22:51;;;;;;;5.28;4.20;;;588.80;1740.80;;;;;;5094503;28;20058;-63
2021/06/20 02:25:17;;;;;;;5.10;4.22;;;588.80;1740.80;;;;;;5094890;28;20070;-62
2021/06/20 02:27:46;;;;;;;6.13;4.68;;;564.10;1740.80;;;;;;5094045;28;20020;-62
2021/06/20 02:30:13;;;;;;;5.50;4.55;;;564.10;1740.80;;;;;;5094882;28;20024;-62
2021/06/20 02:32:39;;;;;;;7.47;4.43;;;564.00;1766.40;;;;;;5094731;28;20023;-62
2021/06/20 02:35:07;;;;;;;6.45;4.35;;;564.00;1766.40;;;;;;5094784;28;20098;-62
2021/06/20 02:37:32;;;;;;;7.93;4.18;;;564.00;1766.40;;;;;;5094354;28;20028;-62
2021/06/20 02:39:59;;;;;;;6.50;4.40;;;563.90;1792.00;;;;;;5094524;28;20020;-62
2021/06/20 02:42:24;;;;;;;10.00;5.13;;;563.80;1792.00;;;;;;5094612;28;20032;-62
2021/06/20 02:44:51;;;;;;;6.90;4.43;;;563.80;1792.00;;;;;;5094432;28;20020;-63
2021/06/20 02:47:17;;;;;;;10.02;4.63;;;563.80;1792.00;;;;;;5094562;28;20035;-62
2021/06/20 02:49:43;;;;;;;12.07;4.88;;;563.80;1792.00;;;;;;5094419;28;20024;-61
2021/06/20 02:52:11;;;;;;;5.68;4.28;;;563.70;1792.00;;;;;;5094125;28;20028;-62
2021/06/20 02:54:37;;;;;;;8.00;4.35;;;563.80;1792.00;;;;;;5094405;28;20095;-62
2021/06/20 02:57:04;;;;;;;6.00;4.55;;;563.70;1792.00;;;;;;5094376;28;20377;-62
2021/06/20 02:59:30;;;;;;;7.18;4.60;;;563.70;1792.00;;;;;;5094421;28;20121;-61
2021/06/20 03:01:55;;;;;;;8.38;4.95;;;563.70;1817.60;;;;;;5094121;28;20119;-63
2021/06/20 03:04:21;;;;;;;12.10;4.72;;;563.70;1792.00;;;;;;5093892;28;20086;-62
2021/06/20 03:06:47;;;;;;;5.15;4.55;;;563.70;1817.60;;;;;;5093977;28;20373;-62
2021/06/20 03:09:13;;;;;;;11.77;5.63;;;563.70;1817.60;;;;;;5093932;28;20032;-62
2021/06/20 03:11:42;;;;;;;7.43;4.82;;;563.70;1817.60;;;;;;5094162;28;20107;-62
2021/06/20 03:14:13;;;;;;;11.43;4.50;;;563.60;1843.20;;;;;;5094056;28;20043;-62
2021/06/20 03:16:40;;;;;;;9.32;5.35;;;563.60;1843.20;;;;;;5094230;28;20020;-61
2021/06/20 03:19:07;;;;;;;6.03;5.15;;;563.60;1843.20;;;;;;5094448;28;20107;-62
2021/06/20 03:21:32;;;;;;;10.18;5.18;;;563.60;1868.80;;;;;;5093613;28;20050;-62
2021/06/20 03:23:58;;;;;;;7.20;5.03;;;563.60;1868.80;;;;;;5093863;28;20032;-63
2021/06/20 03:26:24;;;;;;;9.35;4.60;;;563.60;1868.80;;;;;;5093921;28;20028;-61
2021/06/20 03:28:50;;;;;;;15.15;4.82;;;563.60;1868.80;;;;;;5094020;28;20111;-61
2021/06/20 03:31:18;;;;;;;6.32;4.70;;;563.70;1868.80;;;;;;5093612;28;20048;-61
2021/06/20 03:33:44;;;;;;;8.65;4.90;;;563.60;1868.80;;;;;;5093870;28;20028;-61
2021/06/20 03:36:10;;;;;;;14.00;5.70;;;563.70;1868.80;;;;;;5093894;28;20077;-61
2021/06/20 03:38:36;;;;;;;9.63;4.82;;;563.70;1868.80;;;;;;5095923;28;20089;-63
2021/06/20 03:41:02;;;;;;;10.52;5.03;;;563.70;1868.80;;;;;;5098186;28;20028;-62
2021/06/20 03:43:28;;;;;;;6.50;4.22;;;563.70;1868.80;;;;;;5097764;28;20473;-62
2021/06/20 03:45:53;;;;;;;9.50;4.75;;;563.80;1868.80;;;;;;5097916;28;20028;-62
2021/06/20 03:48:19;;;;;;;7.53;4.78;;;563.80;1868.80;;;;;;5097835;28;20489;-62
2021/06/20 03:50:45;;;;;;;9.80;4.15;;;563.90;1868.80;;;;;;5097730;28;20035;-63
2021/06/20 03:53:11;;;;;;;6.18;4.57;;;563.90;1843.20;;;;;;5097902;28;20024;-61
2021/06/20 03:55:38;;;;;;;5.47;4.28;;;564.00;1868.80;;;;;;5097583;28;20040;-61
2021/06/20 03:58:06;;;;;;;7.32;4.40;;;564.00;1843.20;;;;;;5097761;28;20089;-63
2021/06/20 04:00:33;;;;;;;6.53;4.22;;;564.00;1843.20;;;;;;5097646;28;20484;-62
2021/06/20 04:02:59;;;;;;;6.88;4.35;;;564.10;1843.20;;;;;;5097578;28;20036;-63
2021/06/20 04:05:25;;;;;;;7.18;4.38;;;564.10;1817.60;;;;;;5097463;28;20099;-63
2021/06/20 04:07:51;;;;;;;7.55;4.63;;;564.10;1817.60;;;;;;5097488;28;20520;-61
2021/06/20 04:10:16;;;;;;;9.25;5.05;;;564.10;1817.60;;;;;;5097509;28;20496;-62
2021/06/20 04:12:42;;;;;;;6.53;4.15;;;564.10;1817.60;;;;;;5097485;28;20031;-62
2021/06/20 04:15:08;;;;;;;7.68;4.60;;;564.10;1817.60;;;;;;5097357;28;20027;-63
2021/06/20 04:17:35;;;;;;;6.80;4.65;;;588.80;1817.60;;;;;;5097168;28;20016;-62
2021/06/20 04:20:03;;;;;;;8.30;4.85;;;588.80;1817.60;;;;;;5097676;28;20028;-62
2021/06/20 04:22:28;;;;;;;5.85;4.50;;;588.80;1817.60;;;;;;5096691;28;20101;-62
2021/06/20 04:24:55;;;;;;;7.80;4.57;;;588.80;1817.60;;;;;;5097350;28;20032;-63
2021/06/20 04:27:20;;;;;;;8.65;4.93;;;588.80;1817.60;;;;;;5097326;28;20032;-63
2021/06/20 04:29:46;;;;;;;9.75;4.60;;;588.80;1817.60;;;;;;5097193;28;20123;-62
2021/06/20 04:32:12;;;;;;;9.95;4.78;;;588.80;1817.60;;;;;;5097169;28;20410;-62
2021/06/20 04:34:37;;;;;;;6.78;4.50;;;588.90;1817.60;;;;;;5096987;28;20030;-62
2021/06/20 04:37:03;;;;;;;8.60;3.97;;;588.90;1792.00;;;;;;5096751;28;20073;-62
2021/06/20 04:39:29;;;;;;;6.57;4.00;;;589.00;1792.00;;;;;;5096698;28;20492;-62
2021/06/20 04:41:55;;;;;;;4.25;3.25;;;589.10;1766.40;;;;;;5096929;28;20039;-62
2021/06/20 04:47:05;;;;;;;9.27;3.63;;;589.30;1740.80;;;;;;5097058;28;20042;-62
2021/06/20 04:49:31;;;;;;;5.13;2.67;;;589.40;1740.80;;;;;;5095943;28;20099;-62
2021/06/20 04:51:57;;;;;;;6.00;2.08;;;589.50;1715.20;;;;;;5096192;28;20020;-62
2021/06/20 04:54:23;;;;;;;4.65;2.20;;;589.70;1715.20;;;;;;5096505;28;20028;-62
2021/06/20 04:56:48;;;;;;;8.75;2.97;;;614.50;1689.60;;;;;;5096534;28;20104;-62
2021/06/20 04:59:14;;;;;;;3.90;2.17;;;614.60;1664.00;;;;;;5096519;28;20039;-62
2021/06/20 05:01:40;;;;;;;3.42;1.98;;;614.80;1638.40;;;;;;5112465;27;20048;-62
2021/06/20 05:04:07;;;;;;;4.95;2.10;;;614.90;1638.40;;;;;;5096528;28;20035;-62
2021/06/20 05:06:32;;;;;;;7.68;2.70;;;615.00;1612.80;;;;;;5096312;28;20028;-63
2021/06/20 05:08:58;;;;;;;4.75;2.17;;;615.10;1612.80;;;;;;5096201;28;20024;-62
2021/06/20 05:11:24;;;;;;;6.30;2.08;;;615.30;1587.20;;;;;;5096294;28;20073;-62
2021/06/20 05:13:50;;;;;;;4.20;2.15;;;640.00;1587.20;;;;;;5096248;28;20040;-63
2021/06/20 05:16:15;;;;;;;7.22;2.35;;;640.10;1561.60;;;;;;5096261;28;20030;-62
2021/06/20 05:18:41;;;;;;;9.93;2.45;;;640.40;1561.60;;;;;;5096001;28;20024;-62
2021/06/20 05:21:07;;;;;;;6.35;3.03;;;640.50;1536.00;;;;;;5095982;28;20401;-61
2021/06/20 05:23:33;;;;;;;6.28;2.75;;;640.70;1510.40;;;;;;5096048;28;20060;-63
2021/06/20 05:25:58;;;;;;;8.30;2.33;;;640.80;1510.40;;;;;;5096189;28;20027;-62
2021/06/20 05:28:24;;;;;;;5.38;2.88;;;665.60;1536.00;;;;;;5095961;28;20028;-62
2021/06/20 05:30:50;;;;;;;6.70;3.10;;;665.70;1510.40;;;;;;5096014;28;20043;-62
2021/06/20 05:33:17;;;;;;;4.00;2.05;;;665.80;1510.40;;;;;;5095963;28;20095;-62
2021/06/20 05:35:44;;;;;;;3.13;2.10;;;665.90;1510.40;;;;;;5095798;28;20158;-62
2021/06/20 05:38:10;;;;;;;2.53;2.15;;;666.00;1484.80;;;;;;5095720;28;20016;-62
2021/06/20 05:40:37;;;;;;;3.97;2.55;;;666.20;1484.80;;;;;;5095796;28;20105;-62
2021/06/20 05:43:03;;;;;;;9.32;2.08;;;666.20;1459.20;;;;;;5095438;28;20040;-62
2021/06/20 05:45:29;;;;;;;10.38;2.70;;;666.30;1459.20;;;;;;5095574;28;20030;-62
2021/06/20 05:47:54;;;;;;;5.95;2.20;;;666.50;1459.20;;;;;;5095588;28;20028;-62
2021/06/20 05:50:20;;;;;;;5.28;2.28;;;691.30;1433.60;;;;;;5095589;28;20435;-62
2021/06/20 05:52:46;;;;;;;3.28;2.28;;;691.40;1433.60;;;;;;5095430;28;20078;-63
2021/06/20 05:55:12;;;;;;;5.38;2.38;;;691.60;1408.00;;;;;;5095415;28;20024;-62
2021/06/20 05:57:38;;;;;;;6.03;2.78;;;691.70;1408.00;;;;;;5095031;28;20032;-63
2021/06/20 06:00:06;;;;;;;5.88;2.30;;;691.80;1408.00;;;;;;5094973;28;20396;-62
2021/06/20 06:02:32;;;;;;;4.93;2.33;;;691.90;1382.40;;;;;;5094343;28;20035;-62
2021/06/20 06:04:57;;;;;;;6.38;2.33;;;716.80;1408.00;;;;;;5095356;28;20020;-62
2021/06/20 06:07:23;;;;;;;5.78;2.30;;;716.90;1408.00;;;;;;5095119;28;20462;-62
2021/06/20 06:09:49;;;;;;;6.20;2.40;;;717.00;1408.00;;;;;;5094974;28;20458;-62
2021/06/20 06:12:17;;;;;;;4.35;2.70;;;717.10;1382.40;;;;;;5094739;28;20023;-62
2021/06/20 06:14:43;;;;;;;7.45;2.50;;;717.30;1356.80;;;;;;5095275;28;20097;-62
2021/06/20 06:17:09;;;;;;;6.15;2.15;;;717.40;1356.80;;;;;;5095092;28;20024;-62
2021/06/20 06:19:35;;;;;;;2.97;2.45;;;717.40;1356.80;;;;;;5095062;28;20501;-63
2021/06/20 06:22:00;;;;;;;5.90;2.55;;;717.50;1356.80;;;;;;5093279;28;20048;-63
2021/06/20 06:24:26;;;;;;;6.10;2.45;;;717.70;1331.20;;;;;;5094953;28;20095;-63
2021/06/20 06:26:52;;;;;;;4.65;2.20;;;742.50;1356.80;;;;;;5095099;28;20016;-62
2021/06/20 06:29:17;;;;;;;5.40;2.30;;;742.50;1356.80;;;;;;5095149;28;20032;-62
2021/06/20 06:31:43;;;;;;;2.40;2.17;;;742.60;1331.20;;;;;;5094865;28;20095;-63
2021/06/20 06:34:10;;;;;;;3.28;2.28;;;742.70;1331.20;;;;;;5094651;28;20032;-62
2021/06/20 06:36:37;;;;;;;2.30;2.10;;;742.80;1305.60;;;;;;5094492;28;20044;-63
2021/06/20 06:39:03;;;;;;;4.30;2.05;;;743.00;1305.60;;;;;;5094588;28;20059;-63
2021/06/20 06:41:31;;;;;;;6.78;2.42;;;743.10;1305.60;;;;;;5094304;28;20024;-63
2021/06/20 06:43:57;;;;;;;2.45;2.03;;;743.30;1280.00;;;;;;5094712;28;20103;-62
2021/06/20 06:46:23;;;;;;;3.25;2.15;;;768.10;1254.40;;;;;;5095076;28;20104;-64
2021/06/20 06:48:48;;;;;;;5.10;2.00;;;768.30;1254.40;;;;;;5094406;28;20051;-63
2021/06/20 06:51:14;;;;;;;3.25;2.15;;;768.40;1228.80;;;;;;5094361;28;20032;-63
2021/06/20 06:53:40;;;;;;;5.85;2.40;;;768.60;1228.80;;;;;;5094386;28;20164;-62
2021/06/20 06:56:06;;;;;;;2.88;1.83;;;768.70;1228.80;;;;;;5094288;28;20477;-62
2021/06/20 06:58:32;;;;;;;5.80;2.78;;;793.60;1228.80;;;;;;5093988;28;20020;-62
2021/06/20 07:00:58;;;;;;;9.85;2.55;;;793.70;1228.80;;;;;;5094079;28;20106;-63
2021/06/20 07:03:24;;;;;;;6.22;2.22;;;793.80;1203.20;;;;;;5093998;28;20469;-63
2021/06/20 07:05:49;;;;;;;5.40;2.50;;;794.00;1203.20;;;;;;5094157;28;20030;-63
2021/06/20 07:08:15;;;;;;;4.43;2.50;;;794.10;1177.60;;;;;;5093872;28;20055;-62
2021/06/20 07:10:41;;;;;;;3.28;2.00;;;794.30;1177.60;;;;;;5093984;28;20027;-63
2021/06/20 07:13:07;;;;;;;6.07;2.40;;;794.40;1152.00;;;;;;5093960;28;20024;-62
2021/06/20 07:15:32;;;;;;;7.85;2.40;;;794.40;1152.00;;;;;;5094070;28;20028;-63
2021/06/20 07:17:59;;;;;;;5.25;2.58;;;819.20;1152.00;;;;;;5094233;28;20103;-62
2021/06/20 07:20:25;;;;;;;5.80;2.40;;;819.40;1126.40;;;;;;5093286;28;20089;-62
2021/06/20 07:22:51;;;;;;;2.97;2.08;;;819.50;1126.40;;;;;;5093831;28;20052;-63
2021/06/20 07:25:22;;;;;;;2.55;2.33;;;819.60;1100.80;;;;;;5093986;28;20083;-63
2021/06/20 07:27:49;;;;;;;3.85;2.58;;;819.70;1100.80;;;;;;5093930;28;20093;-63
2021/06/20 07:30:17;;;;;;;3.05;2.17;;;820.00;1100.80;;;;;;5093641;28;20028;-63
2021/06/20 07:32:43;;;;;;;5.00;2.40;;;820.10;1075.20;;;;;;5094019;28;20095;-63
2021/06/20 07:35:10;;;;;;;2.17;1.98;;;844.80;1075.20;;;;;;5094183;28;20024;-63
2021/06/20 07:37:36;;;;;;;3.95;2.28;;;844.80;1049.60;;;;;;5093495;28;20035;-63
2021/06/20 07:40:04;;;;;;;3.00;1.92;;;845.00;1049.60;;;;;;5093904;28;20070;-63
2021/06/20 07:42:30;;;;;;;2.65;2.08;;;845.30;1049.60;;;;;;5093879;28;20434;-63
2021/06/20 07:44:56;;;;;;;3.13;2.25;;;845.30;1024.00;;;;;;5093849;28;20021;-63
2021/06/20 07:47:22;;;;;;;3.20;2.17;;;845.40;1024.00;;;;;;5093692;28;20579;-63
2021/06/20 07:49:47;;;;;;;3.25;2.00;;;845.50;1024.00;;;;;;5093665;28;20107;-63
2021/06/20 07:52:13;;;;;;;3.30;2.00;;;870.40;998.40;;;;;;5093447;28;20035;-63
2021/06/20 07:54:42;;;;;;;11.98;4.03;;;870.50;998.40;;;;;;5093981;28;20136;-63
2021/06/20 07:57:08;;;;;;;8.55;2.50;;;870.60;972.80;;;;;;5094080;28;20017;-64
2021/06/20 07:59:34;;;;;;;28.70;6.05;;;870.60;972.80;;;;;;5093525;28;20020;-63
2021/06/20 08:02:00;;;;;;;12.68;3.70;;;870.80;947.20;;;;;;5093618;28;20032;-63
2021/06/20 08:04:26;;;;;;;9.80;2.90;;;870.80;947.20;;;;;;5093780;28;20477;-63
2021/06/20 08:06:51;;;;;;;4.15;2.50;;;870.90;947.20;;;;;;5093479;28;20073;-63
2021/06/20 08:09:18;;;;;;;3.60;2.30;;;871.10;947.20;;;;;;5094114;28;20074;-64
2021/06/20 08:11:44;;;;;;;5.60;2.42;;;871.20;921.60;;;;;;5093855;28;20099;-63
2021/06/20 08:14:10;;;;;;;3.15;2.05;;;871.30;921.60;;;;;;5093515;28;20051;-64
2021/06/20 08:16:35;;;;;;;8.98;2.80;;;896.00;896.00;;;;;;5093597;28;20031;-63
2021/06/20 08:19:01;;;;;;;10.23;2.53;;;896.10;896.00;;;;;;5094036;28;20115;-63
2021/06/20 08:21:27;;;;;;;2.78;2.45;;;896.30;896.00;;;;;;5093120;28;20044;-63
2021/06/20 08:23:53;;;;;;;3.42;2.35;;;896.50;870.40;;;;;;5093262;28;20032;-64
2021/06/20 08:26:19;;;;;;;3.47;1.65;;;896.60;870.40;;;;;;5096361;28;20036;-63
2021/06/20 08:28:45;;;;;;;4.20;1.98;;;896.80;870.40;;;;;;5097103;28;20027;-63
2021/06/20 08:31:11;;;;;;;3.83;2.22;;;896.80;870.40;;;;;;5096970;28;20030;-63
2021/06/20 08:33:37;;;;;;;4.30;2.05;;;896.90;870.40;;;;;;5096959;28;20098;-64
2021/06/20 08:36:03;;;;;;;3.33;1.92;;;921.60;870.40;;;;;;5096903;28;20032;-65
2021/06/20 08:38:29;;;;;;;4.28;2.15;;;921.70;870.40;;;;;;5096874;28;20599;-63
2021/06/20 08:40:56;;;;;;;4.57;1.90;;;921.90;896.00;;;;;;5096959;28;20115;-63
2021/06/20 08:43:23;;;;;;;3.05;1.73;;;922.00;870.40;;;;;;5097156;28;20389;-63
2021/06/20 08:45:53;;;;;;;4.35;1.67;;;922.10;844.80;;;;;;5096966;28;20022;-64
2021/06/20 08:48:19;;;;;;;2.40;1.63;;;922.10;819.20;;;;;;5097026;28;20024;-64
2021/06/20 08:50:48;;;;;;;3.67;2.08;;;922.20;844.80;;;;;;5096745;28;20033;-64
2021/06/20 08:53:16;;;;;;;3.17;1.90;;;922.30;844.80;;;;;;5096598;28;20031;-64
2021/06/20 08:55:45;;;;;;;2.08;1.88;;;922.30;844.80;;;;;;5096655;28;20024;-63
2021/06/20 08:58:18;;;;;;;3.47;1.60;;;922.50;819.20;;;;;;5096595;28;20024;-62
2021/06/20 09:00:43;;;;;;;1.95;1.75;;;922.50;819.20;;;;;;5096295;28;20537;-63
2021/06/20 09:03:09;;;;;;;2.10;1.60;;;947.20;819.20;;;;;;5096313;28;20114;-62
2021/06/20 09:05:35;;;;;;;3.13;1.98;;;947.30;819.20;;;;;;5096249;28;20024;-63
2021/06/20 09:08:00;;;;;;;4.50;2.05;;;947.30;793.60;;;;;;5095577;28;20059;-63
2021/06/20 09:10:29;;;;;;;4.88;1.80;;;947.40;793.60;;;;;;5096506;28;20044;-65
2021/06/20 09:12:58;;;;;;;3.65;1.83;;;947.50;768.00;;;;;;5094983;28;20020;-63
2021/06/20 09:15:30;;;;;;;6.45;1.70;;;947.50;768.00;;;;;;5094501;28;20024;-64
2021/06/20 09:17:58;;;;;;;2.08;1.40;;;947.60;768.00;;;;;;5096329;28;20028;-63
2021/06/20 09:20:40;;;;;;;2.40;1.80;;;947.70;742.40;;;;;;5095838;28;20020;-63
2021/06/20 09:23:13;;;;;;;2.88;2.08;;;947.80;742.40;;;;;;5095855;28;20039;-63
2021/06/20 09:25:41;;;;;;;7.75;2.65;;;947.90;742.40;;;;;;5095767;28;20062;-63
2021/06/20 09:28:09;;;;;;;10.50;3.88;;;947.80;742.40;;;;;;5095100;28;20046;-70
2021/06/20 09:30:44;;;;;;;4.10;2.47;;;947.90;742.40;;;;;;5095432;28;20068;-72
2021/06/20 09:33:10;;;;;;;2.13;1.90;;;948.00;742.40;;;;;;5093412;28;20020;-65
2021/06/20 09:35:53;;;;;;;12.35;4.85;;;948.00;742.40;;;;;;5095006;28;20405;-63
2021/06/20 09:38:25;;;;;;;33.58;4.05;;;948.00;742.40;;;;;;5095879;28;20024;-63
2021/06/20 09:40:59;;;;;;;8.02;1.80;;;972.80;742.40;;;;;;5095942;28;20052;-62
2021/06/20 09:43:25;;;;;;;4.80;2.00;;;972.80;716.80;;;;;;5096273;28;20107;-62
2021/06/20 09:45:52;;;;;;;3.05;1.65;;;972.90;742.40;;;;;;5095741;28;20423;-63
2021/06/20 09:48:22;;;;;;;3.75;1.50;;;972.90;716.80;;;;;;5094251;28;20122;-63
2021/06/20 09:50:48;;;;;;;3.42;1.40;;;973.00;716.80;;;;;;5095458;28;20338;-62
2021/06/20 09:53:14;;;;;;;1.40;1.20;;;973.00;691.20;;;;;;5095639;28;20412;-62
2021/06/20 09:55:40;;;;;;;1.70;1.30;;;973.10;691.20;;;;;;5096051;28;20032;-62
2021/06/20 09:58:05;;;;;;;5.32;1.23;;;973.20;691.20;;;;;;5095808;28;20028;-63
2021/06/20 10:00:43;;;;;;;1.88;1.20;;;973.20;665.60;;;;;;5095429;28;20489;-62
2021/06/20 10:03:22;;;;;;;1.85;1.17;;;973.20;665.60;;;;;;5094975;28;20067;-62
2021/06/20 10:05:53;;;;;;;3.17;1.70;;;973.30;691.20;;;;;;5095326;28;20052;-63
2021/06/20 10:08:18;;;;;;;4.47;1.75;;;973.30;742.40;;;;;;5095287;28;20054;-63
2021/06/20 10:10:44;;;;;;;2.30;1.60;;;973.30;742.40;;;;;;5095264;28;20416;-63
2021/06/20 10:13:10;;;;;;;16.45;2.75;;;973.50;716.80;;;;;;5095187;28;20536;-62
2021/06/20 10:15:36;;;;;;;8.00;1.90;;;973.50;742.40;;;;;;5093871;28;20032;-62
2021/06/20 10:18:08;;;;;;;3.17;1.60;;;973.60;716.80;;;;;;5093662;28;20039;-62
2021/06/20 10:20:35;;;;;;;1.85;1.27;;;973.50;716.80;;;;;;5094724;28;20046;-63
2021/06/20 10:23:02;;;;;;;3.28;1.73;;;973.60;716.80;;;;;;5095276;28;20134;-62
2021/06/20 10:25:40;;;;;;;3.80;1.65;;;973.60;716.80;;;;;;5094997;28;20055;-62
2021/06/20 10:28:13;;;;;;;2.28;1.60;;;973.70;691.20;;;;;;5094696;28;20082;-63
2021/06/20 10:30:39;;;;;;;4.15;1.33;;;998.40;716.80;;;;;;5094894;28;20032;-62
2021/06/20 10:33:12;;;;;;;2.20;1.30;;;998.40;716.80;;;;;;5094732;28;20080;-62
2021/06/20 10:35:42;;;;;;;1.70;1.40;;;998.40;716.80;;;;;;5094692;28;20477;-62
2021/06/20 10:38:28;;;;;;;2.63;1.50;;;998.40;716.80;;;;;;5094730;28;20031;-62
2021/06/20 10:40:54;;;;;;;2.42;1.42;;;998.40;716.80;;;;;;5093320;28;20046;-62
2021/06/20 10:43:20;;;;;;;1.65;1.55;;;998.40;716.80;;;;;;5094430;28;20412;-63
2021/06/20 10:45:47;;;;;;;1.33;1.23;;;998.40;716.80;;;;;;5094172;28;20032;-62
2021/06/20 10:48:22;;;;;;;2.15;1.23;;;998.40;716.80;;;;;;5094284;28;20024;-62
2021/06/20 10:50:54;;;;;;;1.65;1.33;;;998.40;716.80;;;;;;5094755;28;20027;-63
2021/06/20 10:53:21;;;;;;;11.32;2.03;;;998.40;691.20;;;;;;5094388;28;20419;-62
2021/06/20 10:55:59;;;;;;;12.52;2.33;;;998.40;691.20;;;;;;5093818;28;20080;-61
2021/06/20 10:58:28;;;;;;;2.38;1.67;;;998.40;691.20;;;;;;5094019;28;20031;-61
2021/06/20 11:01:21;;;;;;;2.83;1.48;;;998.40;691.20;;;;;;5093049;28;20043;-61
2021/06/20 11:03:53;;;;;;;2.88;1.52;;;998.50;691.20;;;;;;5090734;28;20044;-61
2021/06/20 11:06:23;;;;;;;2.13;1.42;;;998.50;691.20;;;;;;5091654;28;20484;-61
2021/06/20 11:09:08;;;;;;;1.30;1.20;;;998.50;691.20;;;;;;5090209;28;20064;-63
2021/06/20 11:11:51;;;;;;;3.47;1.63;;;998.40;665.60;;;;;;5090619;28;20019;-61
2021/06/20 11:14:18;;;;;;;17.48;2.95;;;998.50;665.60;;;;;;5091117;28;20065;-62
2021/06/20 11:16:49;;;;;;;10.90;2.60;;;998.50;691.20;;;;;;5092903;28;20016;-61
2021/06/20 11:19:26;;;;;;;4.38;1.98;;;998.50;691.20;;;;;;5092698;28;20023;-63
2021/06/20 11:21:58;;;;;;;4.55;1.63;;;998.50;665.60;;;;;;5092234;28;20044;-61
2021/06/20 11:24:37;;;;;;;2.30;1.50;;;998.50;691.20;;;;;;5090382;28;20032;-61
2021/06/20 11:27:20;;;;;;;2.72;2.10;;;998.60;665.60;;;;;;5090489;28;20153;-60
2021/06/20 11:29:56;;;;;;;3.65;1.67;;;998.60;665.60;;;;;;5090701;28;20089;-61
2021/06/20 11:32:40;;;;;;;4.03;2.13;;;998.70;665.60;;;;;;5090335;28;20060;-61
2021/06/20 11:35:16;;;;;;;1.60;1.40;;;998.60;691.20;;;;;;5090661;28;20462;-60
2021/06/20 11:37:44;;;;;;;3.17;1.73;;;998.70;691.20;;;;;;5090162;28;20377;-63
2021/06/20 11:40:11;;;;;;;2.25;1.38;;;998.80;691.20;;;;;;5092472;28;20095;-61
2021/06/20 11:42:39;;;;;;;1.85;1.70;;;998.60;665.60;;;;;;5092639;28;20099;-61
2021/06/20 11:45:11;;;;;;;1.88;1.40;;;998.50;665.60;;;;;;5093947;28;20046;-64
2021/06/20 11:47:38;;;;;;;23.40;3.03;;;998.50;665.60;;;;;;5092405;28;20024;-63
2021/06/20 11:50:23;;;;;;;25.25;3.00;;;998.60;665.60;;;;;;5093653;28;20055;-61
2021/06/20 11:52:54;;;;;;;18.13;2.15;;;998.70;691.20;;;;;;5093575;28;20021;-63
2021/06/20 11:55:26;;;;;;;15.52;1.92;;;998.60;691.20;;;;;;5093087;28;20040;-61
2021/06/20 11:57:54;;;;;;;9.63;1.63;;;998.60;691.20;;;;;;5092001;28;20020;-61
2021/06/20 12:00:27;;;;;;;3.50;1.48;;;998.60;691.20;;;;;;5095405;28;20028;-63
2021/06/20 12:03:00;;;;;;;1.50;1.40;;;998.70;691.20;;;;;;5097324;28;20124;-63
2021/06/20 12:05:26;;;;;;;5.88;1.70;;;998.70;665.60;;;;;;5097528;28;20462;-63
2021/06/20 12:07:53;;;;;;;3.28;1.60;;;998.60;665.60;;;;;;5097126;28;20077;-64
2021/06/20 12:10:19;;;;;;;4.22;1.25;;;998.50;665.60;;;;;;5095660;28;20032;-61
2021/06/20 12:12:56;;;;;;;16.65;2.42;;;998.60;691.20;;;;;;5095805;28;20072;-61
2021/06/20 12:15:22;;;;;;;7.10;1.92;;;998.60;691.20;;;;;;5089944;28;20028;-62
2021/06/20 12:17:51;;;;;;;4.88;1.90;;;998.70;691.20;;;;;;5091912;28;20032;-63
2021/06/20 12:20:35;;;;;;;3.85;1.67;;;998.70;691.20;;;;;;5095324;28;20024;-62
2021/06/20 12:23:01;;;;;;;3.95;1.45;;;998.70;691.20;;;;;;5094162;28;20047;-62
2021/06/20 12:25:27;;;;;;;3.55;1.60;;;998.70;691.20;;;;;;5093752;28;20047;-62